createdAt,value
2022-08-10T00:00:32.314Z,0
2022-08-10T00:01:33.488Z,0
2022-08-10T00:02:34.605Z,0
2022-08-10T00:03:35.357Z,0
2022-08-10T00:04:36.315Z,0
2022-08-10T00:05:42.950Z,0
2022-08-10T00:06:38.435Z,0
2022-08-10T00:07:39.402Z,0
2022-08-10T00:08:40.456Z,0
2022-08-10T00:09:50.167Z,0
2022-08-10T00:10:42.375Z,0
2022-08-10T00:11:43.521Z,0
2022-08-10T00:12:53.415Z,0
2022-08-10T00:13:46.574Z,0
2022-08-10T00:14:48.534Z,0
2022-08-10T00:15:53.239Z,0
2022-08-10T00:16:51.358Z,0
2022-08-10T00:17:52.326Z,0
2022-08-10T00:18:53.354Z,0
2022-08-10T00:20:02.695Z,0
2022-08-10T00:20:56.001Z,0
2022-08-10T00:21:57.433Z,0
2022-08-10T00:22:58.412Z,0
2022-08-10T00:23:59.405Z,0
2022-08-10T00:25:00.434Z,0
2022-08-10T00:26:01.613Z,0
2022-08-10T00:27:46.899Z,0
2022-08-10T00:28:05.394Z,0
2022-08-10T00:29:06.768Z,0
2022-08-10T00:30:07.414Z,0
2022-08-10T00:31:08.454Z,0
2022-08-10T00:32:09.393Z,0
2022-08-10T00:33:10.354Z,0
2022-08-10T00:34:11.433Z,0
2022-08-10T00:35:12.413Z,0
2022-08-10T00:36:13.435Z,0
2022-08-10T00:37:14.373Z,0
2022-08-10T00:38:15.453Z,0
2022-08-10T00:39:16.447Z,0
2022-08-10T00:40:17.357Z,0
2022-08-10T00:41:18.372Z,0
2022-08-10T00:42:19.333Z,0
2022-08-10T00:43:23.228Z,0
2022-08-10T00:44:21.514Z,0
2022-08-10T00:45:22.373Z,0
2022-08-10T00:46:23.398Z,0
2022-08-10T00:47:36.630Z,0
2022-08-10T00:48:25.482Z,0
2022-08-10T00:49:26.355Z,0
2022-08-10T00:50:27.480Z,0
2022-08-10T00:51:32.442Z,0
2022-08-10T00:52:29.389Z,0
2022-08-10T00:53:30.409Z,0
2022-08-10T00:54:31.414Z,0
2022-08-10T00:55:32.395Z,0
2022-08-10T00:56:35.518Z,0
2022-08-10T00:57:35.517Z,0
2022-08-10T00:58:37.398Z,0
2022-08-10T00:59:38.395Z,0
2022-08-10T01:04:35.737Z,0
2022-08-10T01:04:59.107Z,0
2022-08-10T01:05:51.124Z,0
2022-08-10T01:06:45.323Z,0
2022-08-10T01:07:46.379Z,0
2022-08-10T01:08:47.400Z,0
2022-08-10T01:09:55.516Z,0
2022-08-10T01:10:49.382Z,0
2022-08-10T01:12:34.145Z,0
2022-08-10T01:12:51.573Z,0
2022-08-10T01:13:52.402Z,0
2022-08-10T01:14:53.341Z,0
2022-08-10T01:15:54.288Z,0
2022-08-10T01:16:55.379Z,0
2022-08-10T01:17:56.378Z,0
2022-08-10T01:18:57.418Z,0
2022-08-10T01:19:58.312Z,0
2022-08-10T01:20:59.419Z,0
2022-08-10T01:22:00.380Z,0
2022-08-10T01:23:01.398Z,0
2022-08-10T01:24:02.400Z,0
2022-08-10T01:25:03.401Z,0
2022-08-10T01:26:11.288Z,0
2022-08-10T01:27:05.342Z,0
2022-08-10T01:28:06.320Z,0
2022-08-10T01:29:07.378Z,0
2022-08-10T01:30:08.372Z,0
2022-08-10T01:31:09.399Z,0
2022-08-10T01:32:10.299Z,0
2022-08-10T01:33:11.359Z,0
2022-08-10T01:34:12.467Z,0
2022-08-10T01:35:13.579Z,0
2022-08-10T01:36:15.379Z,0
2022-08-10T01:37:16.480Z,0
2022-08-10T01:38:17.459Z,0
2022-08-10T01:39:18.672Z,0
2022-08-10T01:40:20.378Z,0
2022-08-10T01:41:21.360Z,0
2022-08-10T01:42:22.438Z,0
2022-08-10T01:43:23.378Z,0
2022-08-10T01:44:24.421Z,0
2022-08-10T01:45:25.333Z,0
2022-08-10T01:46:26.340Z,0
2022-08-10T01:47:27.520Z,0
2022-08-10T01:48:28.483Z,0
2022-08-10T01:49:29.418Z,0
2022-08-10T01:50:30.419Z,0
2022-08-10T01:51:31.366Z,0
2022-08-10T01:52:32.429Z,0
2022-08-10T01:53:40.264Z,0
2022-08-10T01:54:34.458Z,0
2022-08-10T01:55:35.401Z,0
2022-08-10T01:56:36.336Z,0
2022-08-10T01:57:37.437Z,0
2022-08-10T01:58:38.538Z,0
2022-08-10T01:59:39.365Z,0
2022-08-10T02:00:40.389Z,0
2022-08-10T02:01:41.474Z,0
2022-08-10T02:02:42.460Z,0
2022-08-10T02:04:01.181Z,0
2022-08-10T02:04:44.439Z,0
2022-08-10T02:05:45.466Z,0
2022-08-10T02:06:46.398Z,0
2022-08-10T02:07:47.458Z,0
2022-08-10T02:08:48.486Z,0
2022-08-10T02:09:49.507Z,0
2022-08-10T02:10:50.557Z,0
2022-08-10T02:11:56.250Z,0
2022-08-10T02:12:53.487Z,0
2022-08-10T02:13:54.371Z,0
2022-08-10T02:14:55.418Z,0
2022-08-10T02:16:01.703Z,0
2022-08-10T02:16:57.605Z,0
2022-08-10T02:18:01.757Z,0
2022-08-10T02:18:59.439Z,0
2022-08-10T02:20:00.448Z,0
2022-08-10T02:21:01.350Z,0
2022-08-10T02:22:35.463Z,0
2022-08-10T02:23:03.415Z,0
2022-08-10T02:24:04.418Z,0
2022-08-10T02:25:05.406Z,0
2022-08-10T02:26:06.465Z,0
2022-08-10T02:27:07.439Z,0
2022-08-10T02:28:08.420Z,0
2022-08-10T02:29:09.406Z,0
2022-08-10T02:30:10.478Z,0
2022-08-10T02:31:11.973Z,0
2022-08-10T02:32:13.507Z,0
2022-08-10T02:33:14.468Z,0
2022-08-10T02:34:19.767Z,0
2022-08-10T02:35:22.086Z,0
2022-08-10T02:36:22.398Z,0
2022-08-10T02:37:23.439Z,0
2022-08-10T02:38:57.733Z,0
2022-08-10T02:39:25.565Z,0
2022-08-10T02:42:17.741Z,0
2022-08-10T02:42:19.555Z,0
2022-08-10T02:45:17.533Z,0
2022-08-10T02:45:24.804Z,0
2022-08-10T02:45:24.831Z,0
2022-08-10T02:45:33.825Z,0
2022-08-10T02:46:34.399Z,0
2022-08-10T02:47:46.827Z,0
2022-08-10T02:48:37.638Z,0
2022-08-10T02:49:39.498Z,0
2022-08-10T02:50:40.417Z,0
2022-08-10T02:52:05.943Z,0
2022-08-10T02:52:43.358Z,0
2022-08-10T02:53:54.273Z,0
2022-08-10T02:54:45.478Z,0
2022-08-10T02:55:46.460Z,0
2022-08-10T02:56:47.459Z,0
2022-08-10T02:58:12.822Z,0
2022-08-10T02:58:49.598Z,0
2022-08-10T02:59:51.438Z,0
2022-08-10T03:00:52.524Z,0
2022-08-10T03:01:53.497Z,0
2022-08-10T03:02:54.496Z,0
2022-08-10T03:03:55.518Z,0
2022-08-10T03:04:58.207Z,0
2022-08-10T03:05:57.459Z,0
2022-08-10T03:06:58.480Z,0
2022-08-10T03:07:59.506Z,0
2022-08-10T03:09:00.441Z,0
2022-08-10T03:10:01.578Z,0
2022-08-10T03:11:02.498Z,0
2022-08-10T03:12:16.601Z,0
2022-08-10T03:13:04.438Z,0
2022-08-10T03:14:05.520Z,0
2022-08-10T03:15:06.478Z,0
2022-08-10T03:16:07.519Z,0
2022-08-10T03:17:08.476Z,0
2022-08-10T03:18:09.480Z,0
2022-08-10T03:20:03.914Z,0
2022-08-10T03:20:36.159Z,0
2022-08-10T03:21:12.478Z,0
2022-08-10T03:22:13.418Z,0
2022-08-10T03:23:14.417Z,0
2022-08-10T03:24:18.189Z,0
2022-08-10T03:25:16.458Z,0
2022-08-10T03:26:20.375Z,0
2022-08-10T03:27:18.478Z,0
2022-08-10T03:28:20.425Z,0
2022-08-10T03:29:21.459Z,0
2022-08-10T03:30:23.902Z,0
2022-08-10T03:31:23.458Z,0
2022-08-10T03:32:24.538Z,0
2022-08-10T03:33:25.600Z,0
2022-08-10T03:34:32.765Z,0
2022-08-10T03:35:29.561Z,0
2022-08-10T03:36:41.193Z,0
2022-08-10T03:37:31.458Z,0
2022-08-10T03:38:32.437Z,0
2022-08-10T03:39:33.564Z,0
2022-08-10T03:40:45.022Z,0
2022-08-10T03:41:35.934Z,0
2022-08-10T03:42:36.676Z,0
2022-08-10T03:43:37.505Z,0
2022-08-10T03:44:38.517Z,0
2022-08-10T03:45:48.534Z,0
2022-08-10T03:46:40.437Z,0
2022-08-10T03:47:41.498Z,0
2022-08-10T03:48:46.961Z,0
2022-08-10T03:49:43.506Z,0
2022-08-10T03:50:45.927Z,0
2022-08-10T03:51:45.478Z,0
2022-08-10T03:52:46.478Z,0
2022-08-10T03:54:02.527Z,0
2022-08-10T03:54:48.557Z,0
2022-08-10T03:56:27.558Z,0
2022-08-10T03:56:50.498Z,0
2022-08-10T03:57:51.499Z,0
2022-08-10T03:58:52.618Z,0
2022-08-10T03:59:54.661Z,0
2022-08-10T04:00:56.619Z,0
2022-08-10T04:02:42.720Z,0
2022-08-10T04:02:59.833Z,0
2022-08-10T04:04:11.711Z,0
2022-08-10T04:05:01.526Z,0
2022-08-10T04:06:02.498Z,0
2022-08-10T04:07:03.602Z,0
2022-08-10T04:08:04.610Z,0
2022-08-10T04:09:06.618Z,0
2022-08-10T04:10:13.130Z,0
2022-08-10T04:11:10.597Z,0
2022-08-10T04:12:12.558Z,0
2022-08-10T04:13:13.459Z,0
2022-08-10T04:14:35.738Z,0
2022-08-10T04:15:15.460Z,0
2022-08-10T04:16:16.457Z,0
2022-08-10T04:17:17.600Z,0
2022-08-10T04:18:18.520Z,0
2022-08-10T04:19:19.522Z,0
2022-08-10T04:20:20.647Z,0
2022-08-10T04:21:21.541Z,0
2022-08-10T04:22:22.520Z,0
2022-08-10T04:23:23.438Z,0
2022-08-10T04:24:24.904Z,0
2022-08-10T04:25:25.520Z,0
2022-08-10T04:26:26.558Z,0
2022-08-10T04:27:27.501Z,0
2022-08-10T04:28:28.520Z,0
2022-08-10T04:29:29.460Z,0
2022-08-10T04:30:30.518Z,0
2022-08-10T04:31:31.579Z,0
2022-08-10T04:32:32.537Z,0
2022-08-10T04:33:33.479Z,0
2022-08-10T04:34:34.486Z,0
2022-08-10T04:35:35.601Z,0
2022-08-10T04:36:52.579Z,0
2022-08-10T04:37:53.500Z,0
2022-08-10T04:38:54.494Z,0
2022-08-10T04:39:55.553Z,0
2022-08-10T04:40:56.626Z,0
2022-08-10T04:41:58.585Z,0
2022-08-10T04:43:03.534Z,0
2022-08-10T04:44:01.738Z,0
2022-08-10T04:45:03.619Z,0
2022-08-10T04:46:04.539Z,0
2022-08-10T04:47:05.617Z,0
2022-08-10T04:48:07.579Z,0
2022-08-10T04:49:13.366Z,0
2022-08-10T04:50:09.558Z,0
2022-08-10T04:51:10.662Z,0
2022-08-10T04:52:11.458Z,0
2022-08-10T04:53:12.459Z,0
2022-08-10T04:54:15.875Z,0
2022-08-10T04:55:14.578Z,0
2022-08-10T04:56:15.507Z,0
2022-08-10T04:57:16.553Z,0
2022-08-10T04:58:17.697Z,0
2022-08-10T04:59:19.618Z,0
2022-08-10T05:00:21.617Z,0
2022-08-10T05:01:24.867Z,0
2022-08-10T05:02:30.934Z,0
2022-08-10T05:03:24.571Z,0
2022-08-10T05:04:32.763Z,0
2022-08-10T05:05:26.480Z,0
2022-08-10T05:06:27.600Z,0
2022-08-10T05:07:28.485Z,0
2022-08-10T05:08:29.542Z,0
2022-08-10T05:09:30.579Z,0
2022-08-10T05:10:31.619Z,0
2022-08-10T05:11:32.502Z,0
2022-08-10T05:12:35.649Z,0
2022-08-10T05:13:34.621Z,0
2022-08-10T05:14:35.522Z,0
2022-08-10T05:15:36.617Z,0
2022-08-10T05:16:37.618Z,0
2022-08-10T05:17:38.603Z,0
2022-08-10T05:18:39.518Z,0
2022-08-10T05:20:02.756Z,0
2022-08-10T05:20:41.559Z,0
2022-08-10T05:21:52.255Z,0
2022-08-10T05:22:43.547Z,0
2022-08-10T05:23:44.557Z,0
2022-08-10T05:24:45.560Z,0
2022-08-10T05:25:46.628Z,0
2022-08-10T05:26:55.348Z,0
2022-08-10T05:27:48.530Z,0
2022-08-10T05:28:49.497Z,0
2022-08-10T05:30:00.952Z,0
2022-08-10T05:30:51.598Z,0
2022-08-10T05:31:52.498Z,0
2022-08-10T05:32:55.785Z,0
2022-08-10T05:33:54.511Z,0
2022-08-10T05:34:55.519Z,0
2022-08-10T05:35:58.234Z,0
2022-08-10T05:36:57.678Z,0
2022-08-10T05:38:11.231Z,0
2022-08-10T05:38:59.577Z,0
2022-08-10T05:40:00.681Z,0
2022-08-10T05:41:01.657Z,0
2022-08-10T05:42:02.625Z,0
2022-08-10T05:43:03.601Z,0
2022-08-10T05:44:04.602Z,0
2022-08-10T05:45:05.522Z,0
2022-08-10T05:46:16.371Z,0
2022-08-10T05:47:10.926Z,0
2022-08-10T05:48:40.905Z,0
2022-08-10T05:49:09.557Z,0
2022-08-10T05:50:10.620Z,0
2022-08-10T05:51:11.678Z,0
2022-08-10T05:52:12.558Z,0
2022-08-10T05:53:23.219Z,0
2022-08-10T05:54:14.538Z,0
2022-08-10T05:55:17.260Z,0
2022-08-10T05:56:16.898Z,0
2022-08-10T05:57:18.697Z,0
2022-08-10T05:58:20.617Z,0
2022-08-10T06:00:09.255Z,0
2022-08-10T06:00:35.946Z,0
2022-08-10T06:01:24.588Z,0
2022-08-10T06:02:32.225Z,0
2022-08-10T06:03:26.725Z,0
2022-08-10T06:04:28.580Z,0
2022-08-10T06:05:29.579Z,0
2022-08-10T06:06:30.540Z,0
2022-08-10T06:07:31.522Z,0
2022-08-10T06:08:32.619Z,0
2022-08-10T06:09:33.577Z,0
2022-08-10T06:10:35.226Z,0
2022-08-10T06:12:24.885Z,0
2022-08-10T06:12:53.500Z,0
2022-08-10T06:13:57.242Z,0
2022-08-10T06:14:38.768Z,0
2022-08-10T06:15:51.122Z,0
2022-08-10T06:16:41.561Z,0
2022-08-10T06:17:42.540Z,0
2022-08-10T06:18:43.563Z,0
2022-08-10T06:19:44.577Z,0
2022-08-10T06:20:45.620Z,0
2022-08-10T06:21:54.967Z,0
2022-08-10T06:22:47.628Z,0
2022-08-10T06:23:48.581Z,0
2022-08-10T06:25:12.506Z,0
2022-08-10T06:26:09.246Z,0
2022-08-10T06:26:52.586Z,0
2022-08-10T06:27:53.558Z,0
2022-08-10T06:29:03.527Z,0
2022-08-10T06:29:55.577Z,0
2022-08-10T06:30:56.617Z,0
2022-08-10T06:31:57.697Z,0
2022-08-10T06:32:58.620Z,0
2022-08-10T06:33:59.682Z,0
2022-08-10T06:35:00.539Z,0
2022-08-10T06:36:01.526Z,0
2022-08-10T06:37:02.619Z,1.09
2022-08-10T06:38:03.590Z,0.84
2022-08-10T06:39:23.195Z,0.91
2022-08-10T06:40:05.624Z,0.96
2022-08-10T06:41:06.644Z,0.72
2022-08-10T06:42:15.559Z,0.47
2022-08-10T06:43:08.598Z,0.21
2022-08-10T06:44:09.619Z,0.35
2022-08-10T06:45:10.678Z,0.23
2022-08-10T06:46:12.712Z,0.07
2022-08-10T06:47:14.648Z,0.46
2022-08-10T06:48:15.679Z,0.48
2022-08-10T06:49:17.777Z,0.1
2022-08-10T06:50:34.397Z,0.22
2022-08-10T06:51:21.658Z,0.14
2022-08-10T06:52:22.606Z,0.17
2022-08-10T06:53:23.571Z,0.27
2022-08-10T06:54:24.559Z,0.56
2022-08-10T06:55:27.283Z,0.23
2022-08-10T06:56:35.649Z,0.23
2022-08-10T06:57:27.629Z,0
2022-08-10T06:58:28.657Z,0.44
2022-08-10T06:59:29.543Z,0.4
2022-08-10T07:00:32.727Z,0.47
2022-08-10T07:01:31.705Z,0.39
2022-08-10T07:02:32.706Z,0.24
2022-08-10T07:03:33.565Z,0.14
2022-08-10T07:04:34.646Z,0.12
2022-08-10T07:05:35.637Z,0.51
2022-08-10T07:06:36.719Z,0.16
2022-08-10T07:07:38.577Z,0.1
2022-08-10T07:08:39.719Z,0.13
2022-08-10T07:09:40.677Z,0.14
2022-08-10T07:10:45.728Z,0.19
2022-08-10T07:11:43.678Z,0
2022-08-10T07:12:44.646Z,0.68
2022-08-10T07:14:15.053Z,0.43
2022-08-10T07:14:46.766Z,0.35
2022-08-10T07:15:57.173Z,0.42
2022-08-10T07:16:49.579Z,0.38
2022-08-10T07:17:50.587Z,0.17
2022-08-10T07:18:51.617Z,0.09
2022-08-10T07:19:52.774Z,0
2022-08-10T07:20:53.580Z,0
2022-08-10T07:21:58.005Z,0.48
2022-08-10T07:23:00.726Z,0.43
2022-08-10T07:23:59.895Z,0.18
2022-08-10T07:24:57.677Z,0.42
2022-08-10T07:25:58.588Z,0.38
2022-08-10T07:26:59.586Z,0.21
2022-08-10T07:28:01.718Z,0.24
2022-08-10T07:29:01.512Z,0.83
2022-08-10T07:30:02.720Z,0.37
2022-08-10T07:31:03.711Z,0.06
2022-08-10T07:32:04.630Z,0.28
2022-08-10T07:33:05.727Z,0.22
2022-08-10T07:34:07.725Z,0.77
2022-08-10T07:35:09.733Z,0.18
2022-08-10T07:36:10.700Z,0.42
2022-08-10T07:37:12.738Z,0.69
2022-08-10T07:38:14.618Z,0.31
2022-08-10T07:39:15.772Z,1.22
2022-08-10T07:40:16.731Z,1
2022-08-10T07:41:17.935Z,1.11
2022-08-10T07:42:19.607Z,0.55
2022-08-10T07:43:20.778Z,0.17
2022-08-10T07:44:22.759Z,0.08
2022-08-10T07:45:23.698Z,0.43
2022-08-10T07:46:24.637Z,0.51
2022-08-10T07:47:46.502Z,0.22
2022-08-10T07:48:26.645Z,1.07
2022-08-10T07:49:27.648Z,0.99
2022-08-10T07:50:28.680Z,0.52
2022-08-10T07:51:29.538Z,0.83
2022-08-10T07:52:30.599Z,0.11
2022-08-10T07:53:31.660Z,0.53
2022-08-10T07:54:32.658Z,0.5
2022-08-10T07:56:03.159Z,0.4
2022-08-10T07:56:48.290Z,0.54
2022-08-10T07:57:39.699Z,0.63
2022-08-10T07:58:36.777Z,0.36
2022-08-10T07:59:38.659Z,0.09
2022-08-10T08:00:39.529Z,0.19
2022-08-10T08:01:40.785Z,0.35
2022-08-10T08:02:42.758Z,0.41
2022-08-10T08:03:44.657Z,0.55
2022-08-10T08:04:45.595Z,0.9
2022-08-10T08:05:57.766Z,1.21
2022-08-10T08:06:47.720Z,0.4
2022-08-10T08:07:48.597Z,0.32
2022-08-10T08:08:49.613Z,1.04
2022-08-10T08:09:57.189Z,0.92
2022-08-10T08:10:51.718Z,0.99
2022-08-10T08:11:52.643Z,1.88
2022-08-10T08:12:53.579Z,1.53
2022-08-10T08:13:54.618Z,0.99
2022-08-10T08:14:55.758Z,1.06
2022-08-10T08:16:18.979Z,0.96
2022-08-10T08:16:58.628Z,1.03
2022-08-10T08:18:00.665Z,0.83
2022-08-10T08:19:25.819Z,0.82
2022-08-10T08:20:02.766Z,1.28
2022-08-10T08:21:03.835Z,0.65
2022-08-10T08:24:03.949Z,0.25
2022-08-10T08:24:04.163Z,1.04
2022-08-10T08:24:32.148Z,1.73
2022-08-10T08:25:12.977Z,1.22
2022-08-10T08:26:10.637Z,2.01
2022-08-10T08:27:11.658Z,1.17
2022-08-10T08:28:12.579Z,0.93
2022-08-10T08:29:13.635Z,1.5
2022-08-10T08:30:14.617Z,1.06
2022-08-10T08:31:15.758Z,0.8
2022-08-10T08:32:17.630Z,1.68
2022-08-10T08:33:19.821Z,1.6
2022-08-10T08:34:19.638Z,1.15
2022-08-10T08:35:20.678Z,1.7
2022-08-10T08:36:21.756Z,1.23
2022-08-10T08:38:28.969Z,0.98
2022-08-10T08:38:29.341Z,2.24
2022-08-10T08:39:26.768Z,1.88
2022-08-10T08:40:30.578Z,0.74
2022-08-10T08:41:31.687Z,0.57
2022-08-10T08:42:32.709Z,0.85
2022-08-10T08:43:33.639Z,1.33
2022-08-10T08:44:35.179Z,0.73
2022-08-10T08:45:36.767Z,1.78
2022-08-10T08:46:38.731Z,2.26
2022-08-10T08:48:01.114Z,1.6
2022-08-10T08:48:42.898Z,1.64
2022-08-10T08:50:05.485Z,1.67
2022-08-10T08:50:46.758Z,1.79
2022-08-10T08:52:06.403Z,1.23
2022-08-10T08:52:48.741Z,0.76
2022-08-10T08:54:00.750Z,1.19
2022-08-10T08:54:50.678Z,0.77
2022-08-10T08:56:03.205Z,1.11
2022-08-10T08:56:52.686Z,1.14
2022-08-10T08:57:53.658Z,0.84
2022-08-10T08:58:54.653Z,0.83
2022-08-10T08:59:55.802Z,2.55
2022-08-10T09:00:57.698Z,0.89
2022-08-10T09:01:58.744Z,1.6
2022-08-10T09:02:59.759Z,2.18
2022-08-10T09:04:01.678Z,1.2
2022-08-10T09:05:02.761Z,1.86
2022-08-10T09:06:03.670Z,1.9
2022-08-10T09:07:04.721Z,1.71
2022-08-10T09:08:05.798Z,0.47
2022-08-10T09:09:07.729Z,1.65
2022-08-10T09:10:08.714Z,1.62
2022-08-10T09:11:09.780Z,1.01
2022-08-10T09:12:10.707Z,2.27
2022-08-10T09:13:11.714Z,1.85
2022-08-10T09:14:12.795Z,1.33
2022-08-10T09:15:40.157Z,1.6
2022-08-10T09:16:15.609Z,1.7
2022-08-10T09:17:16.633Z,1.96
2022-08-10T09:18:17.668Z,0.89
2022-08-10T09:19:19.547Z,0.5
2022-08-10T09:20:19.634Z,0.53
2022-08-10T09:21:20.572Z,1.27
2022-08-10T09:22:21.681Z,1.07
2022-08-10T09:23:22.669Z,1.77
2022-08-10T09:24:23.685Z,0.58
2022-08-10T09:25:24.695Z,1.75
2022-08-10T09:26:25.617Z,0.79
2022-08-10T09:27:26.926Z,0.39
2022-08-10T09:28:28.719Z,0.97
2022-08-10T09:29:29.629Z,1.28
2022-08-10T09:30:31.187Z,0.79
2022-08-10T09:31:31.547Z,0.11
2022-08-10T09:33:05.763Z,1.34
2022-08-10T09:36:17.743Z,1.14
2022-08-10T09:36:17.864Z,1.49
2022-08-10T09:36:18.602Z,1.17
2022-08-10T09:36:37.151Z,0.2
2022-08-10T09:37:39.415Z,1
2022-08-10T09:38:40.722Z,0.36
2022-08-10T09:40:06.156Z,0.58
2022-08-10T09:40:58.499Z,2.7
2022-08-10T09:41:46.747Z,1.63
2022-08-10T09:43:02.167Z,1.2
2022-08-10T09:43:48.719Z,0.72
2022-08-10T09:44:57.811Z,0.76
2022-08-10T09:45:50.658Z,0.28
2022-08-10T09:46:51.798Z,0
2022-08-10T09:48:01.604Z,0.16
2022-08-10T09:48:55.818Z,0.65
2022-08-10T09:50:02.306Z,0.37
2022-08-10T09:51:34.792Z,0.73
2022-08-10T09:52:00.778Z,0.82
2022-08-10T09:53:01.655Z,1.63
2022-08-10T09:54:02.728Z,1.08
2022-08-10T09:55:03.758Z,1.76
2022-08-10T09:56:16.790Z,1.94
2022-08-10T09:57:41.187Z,1.71
2022-08-10T09:58:06.821Z,2.12
2022-08-10T09:59:26.439Z,0.6
2022-08-10T10:00:10.776Z,1.35
2022-08-10T10:01:22.325Z,1.87
2022-08-10T10:02:12.678Z,2.8
2022-08-10T10:03:13.743Z,2.23
2022-08-10T10:04:14.719Z,0.43
2022-08-10T10:05:15.759Z,0.96
2022-08-10T10:06:16.726Z,0.75
2022-08-10T10:07:17.719Z,0.9
2022-08-10T10:08:18.819Z,0.5
2022-08-10T10:09:19.699Z,1
2022-08-10T10:10:20.681Z,0.97
2022-08-10T10:11:21.678Z,0.47
2022-08-10T10:12:22.679Z,1.2
2022-08-10T10:13:41.831Z,1.32
2022-08-10T10:14:24.718Z,1.6
2022-08-10T10:15:26.060Z,2.16
2022-08-10T10:16:26.718Z,1.49
2022-08-10T10:17:27.731Z,1.98
2022-08-10T10:18:28.923Z,0.84
2022-08-10T10:19:30.853Z,0.89
2022-08-10T10:20:31.784Z,1.14
2022-08-10T10:21:52.340Z,0.67
2022-08-10T10:22:33.734Z,0.22
2022-08-10T10:23:34.746Z,1.84
2022-08-10T10:24:35.804Z,1.27
2022-08-10T10:25:49.948Z,0.81
2022-08-10T10:26:38.797Z,1.89
2022-08-10T10:27:40.725Z,0.75
2022-08-10T10:29:15.574Z,1.55
2022-08-10T10:29:57.765Z,1.03
2022-08-10T10:30:44.836Z,1.59
2022-08-10T10:31:45.661Z,1.57
2022-08-10T10:32:46.746Z,0.83
2022-08-10T10:33:47.838Z,0.98
2022-08-10T10:34:48.799Z,0.48
2022-08-10T10:35:49.647Z,0.86
2022-08-10T10:36:50.748Z,3.18
2022-08-10T10:38:00.548Z,2.44
2022-08-10T10:38:52.766Z,2.35
2022-08-10T10:39:53.906Z,2.05
2022-08-10T10:40:54.697Z,2
2022-08-10T10:42:04.119Z,2.68
2022-08-10T10:42:57.079Z,2.28
2022-08-10T10:43:58.897Z,1.98
2022-08-10T10:45:00.721Z,1.43
2022-08-10T10:46:01.785Z,1.11
2022-08-10T10:47:02.757Z,1.01
2022-08-10T10:48:03.777Z,1.49
2022-08-10T10:49:04.820Z,0.41
2022-08-10T10:50:05.723Z,1.87
2022-08-10T10:51:10.394Z,1.3
2022-08-10T10:52:07.818Z,0.57
2022-08-10T10:53:08.783Z,0.55
2022-08-10T10:54:09.817Z,0.61
2022-08-10T10:55:10.797Z,0.26
2022-08-10T10:56:14.058Z,0
2022-08-10T10:57:12.717Z,0.12
2022-08-10T10:58:16.269Z,0.95
2022-08-10T10:59:33.366Z,1.99
2022-08-10T11:00:16.794Z,2.21
2022-08-10T11:01:17.956Z,2.56
2022-08-10T11:02:19.887Z,1.19
2022-08-10T11:03:21.894Z,0.62
2022-08-10T11:04:23.836Z,0.57
2022-08-10T11:05:24.798Z,0.98
2022-08-10T11:06:39.358Z,0.68
2022-08-10T11:07:31.844Z,0.25
2022-08-10T11:08:29.363Z,0.88
2022-08-10T11:10:04.337Z,1.77
2022-08-10T11:10:32.179Z,0.51
2022-08-10T11:12:01.007Z,1.49
2022-08-10T11:12:32.111Z,0.5
2022-08-10T11:14:24.030Z,0.66
2022-08-10T11:14:35.086Z,1.52
2022-08-10T11:15:42.798Z,1.61
2022-08-10T11:16:37.878Z,1.67
2022-08-10T11:17:39.839Z,1.55
2022-08-10T11:18:40.779Z,1.99
2022-08-10T11:20:00.015Z,1.96
2022-08-10T11:20:43.798Z,1.47
2022-08-10T11:21:44.737Z,2.18
2022-08-10T11:22:45.720Z,1.9
2022-08-10T11:23:46.758Z,2.23
2022-08-10T11:24:50.358Z,0.83
2022-08-10T11:25:48.857Z,0.23
2022-08-10T11:26:49.753Z,0.34
2022-08-10T11:27:50.759Z,0.69
2022-08-10T11:28:51.777Z,0.32
2022-08-10T11:29:52.777Z,0.39
2022-08-10T11:30:53.758Z,0.71
2022-08-10T11:31:54.760Z,0.49
2022-08-10T11:32:55.698Z,1.06
2022-08-10T11:34:11.854Z,0.58
2022-08-10T11:35:10.124Z,0.71
2022-08-10T11:35:59.758Z,2.47
2022-08-10T11:37:00.759Z,1.5
2022-08-10T11:38:28.298Z,1.39
2022-08-10T11:39:17.629Z,1.8
2022-08-10T11:40:05.029Z,1.6
2022-08-10T11:41:14.692Z,1
2022-08-10T11:42:16.669Z,0.32
2022-08-10T11:43:09.718Z,0.45
2022-08-10T11:44:10.782Z,0.14
2022-08-10T11:45:11.758Z,1
2022-08-10T11:46:16.519Z,1.12
2022-08-10T11:47:13.765Z,0.92
2022-08-10T11:48:52.405Z,1.22
2022-08-10T11:49:15.760Z,1.44
2022-08-10T11:50:16.782Z,1.92
2022-08-10T11:51:17.789Z,1.87
2022-08-10T11:52:18.781Z,1.1
2022-08-10T11:53:19.719Z,0.38
2022-08-10T11:54:20.723Z,0.96
2022-08-10T11:55:21.719Z,0.47
2022-08-10T11:56:22.937Z,0.62
2022-08-10T11:57:23.797Z,1.47
2022-08-10T11:58:24.798Z,1.71
2022-08-10T11:59:26.017Z,1.42
2022-08-10T12:00:29.362Z,1.96
2022-08-10T12:01:28.797Z,1.59
2022-08-10T12:02:29.906Z,1
2022-08-10T12:03:34.527Z,1.2
2022-08-10T12:04:31.886Z,1.42
2022-08-10T12:05:46.653Z,2.27
2022-08-10T12:06:53.986Z,2.67
2022-08-10T12:08:10.275Z,2.81
2022-08-10T12:08:55.149Z,2.98
2022-08-10T12:10:08.154Z,2
2022-08-10T12:10:40.920Z,1.4
2022-08-10T12:11:41.648Z,2.09
2022-08-10T12:12:42.872Z,1.5
2022-08-10T12:13:58.679Z,1.6
2022-08-10T12:14:45.885Z,1.36
2022-08-10T12:15:47.838Z,1.54
2022-08-10T12:16:48.878Z,1.87
2022-08-10T12:17:49.705Z,1.28
2022-08-10T12:18:50.738Z,0.45
2022-08-10T12:19:58.858Z,0.66
2022-08-10T12:20:52.697Z,0.97
2022-08-10T12:21:53.768Z,0.89
2022-08-10T12:22:54.735Z,0.34
2022-08-10T12:24:02.393Z,0.79
2022-08-10T12:24:57.171Z,0.42
2022-08-10T12:25:58.899Z,1.68
2022-08-10T12:26:59.767Z,1.9
2022-08-10T12:28:00.697Z,1.62
2022-08-10T12:29:01.852Z,2.26
2022-08-10T12:30:02.913Z,1.85
2022-08-10T12:31:03.745Z,1.23
2022-08-10T12:32:04.906Z,0.62
2022-08-10T12:33:05.827Z,0.25
2022-08-10T12:34:06.743Z,0.32
2022-08-10T12:35:07.843Z,0.41
2022-08-10T12:36:18.121Z,0.54
2022-08-10T12:37:09.806Z,0.66
2022-08-10T12:38:10.799Z,0.41
2022-08-10T12:39:11.863Z,0.52
2022-08-10T12:41:14.864Z,1.52
2022-08-10T12:42:27.717Z,1.39
2022-08-10T12:44:06.160Z,1.87
2022-08-10T12:44:17.785Z,0.7
2022-08-10T12:45:18.905Z,0.89
2022-08-10T12:46:19.838Z,1.3
2022-08-10T12:47:20.739Z,1.88
2022-08-10T12:48:21.800Z,2.42
2022-08-10T12:49:22.897Z,1.23
2022-08-10T12:50:31.626Z,2.58
2022-08-10T12:51:26.820Z,2.79
2022-08-10T12:52:27.881Z,2.78
2022-08-10T12:53:28.878Z,2.39
2022-08-10T12:54:32.207Z,1.82
2022-08-10T12:55:30.847Z,1.85
2022-08-10T12:56:32.557Z,1.4
2022-08-10T12:57:32.879Z,1.26
2022-08-10T12:58:58.409Z,1.76
2022-08-10T12:59:43.054Z,0.9
2022-08-10T13:00:41.578Z,0.82
2022-08-10T13:02:07.167Z,1.42
2022-08-10T13:02:38.157Z,0.47
2022-08-10T13:04:20.079Z,0.34
2022-08-10T13:04:39.899Z,0.81
2022-08-10T13:05:55.014Z,1.05
2022-08-10T13:06:41.836Z,1.71
2022-08-10T13:08:04.159Z,0.92
2022-08-10T13:08:43.777Z,0.75
2022-08-10T13:09:53.986Z,1.25
2022-08-10T13:10:45.814Z,0.81
2022-08-10T13:12:34.617Z,0.14
2022-08-10T13:12:48.218Z,0.61
2022-08-10T13:13:49.407Z,1.48
2022-08-10T13:14:49.823Z,0.77
2022-08-10T13:15:51.444Z,1.86
2022-08-10T13:16:52.918Z,1.6
2022-08-10T13:17:54.883Z,1.52
2022-08-10T13:18:55.766Z,1.11
2022-08-10T13:20:00.029Z,1.81
2022-08-10T13:20:58.780Z,1.41
2022-08-10T13:21:59.883Z,1.16
2022-08-10T13:23:00.819Z,2.58
2022-08-10T13:24:03.660Z,2.06
2022-08-10T13:25:03.978Z,1.5
2022-08-10T13:26:05.980Z,2.53
2022-08-10T13:27:23.647Z,1.92
2022-08-10T13:28:35.168Z,2.07
2022-08-10T13:29:12.847Z,2.49
2022-08-10T13:30:12.877Z,1.63
2022-08-10T13:31:16.456Z,2.01
2022-08-10T13:32:14.880Z,1.29
2022-08-10T13:33:16.014Z,0.78
2022-08-10T13:34:41.831Z,0.71
2022-08-10T13:35:19.934Z,2.39
2022-08-10T13:36:20.838Z,1.97
2022-08-10T13:37:21.961Z,1.05
2022-08-10T13:38:23.918Z,2.19
2022-08-10T13:39:24.986Z,1.41
2022-08-10T13:40:25.934Z,1.24
2022-08-10T13:41:26.799Z,1.2
2022-08-10T13:42:30.645Z,2.3
2022-08-10T13:43:28.788Z,1.7
2022-08-10T13:44:29.778Z,1.53
2022-08-10T13:45:30.838Z,1.14
2022-08-10T13:46:31.766Z,0.36
2022-08-10T13:47:36.110Z,0.37
2022-08-10T13:48:33.798Z,0.31
2022-08-10T13:49:34.840Z,0.43
2022-08-10T13:50:37.488Z,0.44
2022-08-10T13:51:54.623Z,0.66
2022-08-10T13:52:38.079Z,0.75
2022-08-10T13:53:39.858Z,1.39
2022-08-10T13:54:40.865Z,2.2
2022-08-10T13:55:45.898Z,2.39
2022-08-10T13:56:43.910Z,3.68
2022-08-10T13:57:47.541Z,3.34
2022-08-10T13:58:45.798Z,5.59
2022-08-10T14:00:33.319Z,5.19
2022-08-10T14:00:48.927Z,3.84
2022-08-10T14:01:49.904Z,3.73
2022-08-10T14:02:50.880Z,3.44
2022-08-10T14:03:51.878Z,3.76
2022-08-10T14:04:52.920Z,3.47
2022-08-10T14:05:54.017Z,2.59
2022-08-10T14:06:55.897Z,1.34
2022-08-10T14:08:00.605Z,1.43
2022-08-10T14:08:58.839Z,3.43
2022-08-10T14:10:00.835Z,2.58
2022-08-10T14:11:01.484Z,2.78
2022-08-10T14:12:02.898Z,2.21
2022-08-10T14:13:03.832Z,2.46
2022-08-10T14:14:04.812Z,3.9
2022-08-10T14:15:05.881Z,3.34
2022-08-10T14:16:06.819Z,1.36
2022-08-10T14:17:07.784Z,1.17
2022-08-10T14:18:08.810Z,2.65
2022-08-10T14:19:09.760Z,2.06
2022-08-10T14:20:14.115Z,1.84
2022-08-10T14:21:11.880Z,0.8